Loretto, Kentucky
Current Conditions -  °F | °C
As of 9:55 PM on Sunday 23 Nov 2014 (Local Time) from K6I2 Reporting Station
Broken Clouds Broken Clouds  
Wind Chill: 59°   Ceiling: 2300
Heat Index: 59°   Visibility: 10mi
Dew Point: 55°   Wind: 21mph
Humidity: 88%   Direction: 180°S
Pressure: 29.35"   Gusts: 29mph
Location:  37.64°N, 85.4°W
Report Text: K6I2 240255Z AUTO 18018G25KT 10SM BKN023 BKN027 15/13 A2935 RMK AO2
Loading
Personal Weather Stations






























Interactive Weather Map New forecast layout! Learn more

10-Day Weather Forecast

Advertisements
Track Severe Weather on mobile